Time;durP1;ratioP1;P1;durP2;ratioP2;P2;SDS_P1;SDS_P2;PMS_P1;PMS_P2;Temp;Humidity;BMP_temperature;BMP_pressure;BME280_temperature;BME280_humidity;BME280_pressure;Samples;Min_cycle;Max_cycle;Signal;HPM_P1;HPM_P2
2020/12/05 00:00:53;;;;;;;15.70;3.30;;;14.40;67.60;;;;;;5055021;28;20025;-73
2020/12/05 00:03:19;;;;;;;11.63;2.50;;;14.40;66.90;;;;;;5037341;28;20095;-74
2020/12/05 00:05:47;;;;;;;11.13;2.72;;;14.40;66.90;;;;;;5054995;28;20486;-70
2020/12/05 00:08:12;;;;;;;7.93;2.40;;;14.40;66.60;;;;;;5054070;28;20025;-72
2020/12/05 00:10:38;;;;;;;12.43;2.80;;;14.40;66.60;;;;;;5054819;28;20650;-69
2020/12/05 00:13:04;;;;;;;16.50;3.40;;;14.50;66.70;;;;;;5054945;28;20029;-73
2020/12/05 00:15:29;;;;;;;9.90;2.42;;;14.50;66.60;;;;;;5054819;28;20083;-69
2020/12/05 00:17:55;;;;;;;11.20;2.22;;;14.50;66.80;;;;;;5054926;28;20464;-72
2020/12/05 00:20:21;;;;;;;12.82;2.83;;;14.50;66.80;;;;;;5054843;28;20083;-68
2020/12/05 00:22:49;;;;;;;10.63;2.65;;;14.50;66.60;;;;;;5053538;28;20116;-76
2020/12/05 00:25:16;;;;;;;15.48;3.08;;;14.50;67.20;;;;;;5054769;28;20075;-68
2020/12/05 00:27:42;;;;;;;14.13;2.63;;;14.50;66.80;;;;;;5054843;28;20102;-70
2020/12/05 00:30:07;;;;;;;12.73;3.10;;;14.50;66.70;;;;;;5035829;28;20053;-73
2020/12/05 00:32:33;;;;;;;9.23;3.00;;;14.50;66.80;;;;;;5054278;28;20505;-74
2020/12/05 00:34:59;;;;;;;10.57;2.50;;;14.50;67.00;;;;;;5054462;28;20028;-69
2020/12/05 00:37:29;;;;;;;12.48;3.22;;;14.50;67.20;;;;;;5054621;28;20037;-69
2020/12/05 00:39:55;;;;;;;14.43;2.85;;;14.50;67.00;;;;;;5054597;28;20023;-69
2020/12/05 00:42:20;;;;;;;15.60;3.10;;;14.50;67.30;;;;;;5054430;28;20195;-70
2020/12/05 00:44:46;;;;;;;13.40;3.00;;;14.50;67.40;;;;;;5054480;28;20021;-69
2020/12/05 00:47:12;;;;;;;15.40;3.53;;;14.50;67.40;;;;;;5054616;28;20037;-71
2020/12/05 00:49:37;;;;;;;14.38;2.83;;;14.50;67.40;;;;;;5054361;28;20474;-66
2020/12/05 00:52:06;;;;;;;15.73;3.08;;;14.50;67.50;;;;;;5054640;28;20389;-70
2020/12/05 00:54:32;;;;;;;7.55;2.53;;;14.50;68.20;;;;;;5053827;28;20118;-70
2020/12/05 00:56:58;;;;;;;17.58;3.53;;;14.50;67.50;;;;;;5054197;28;20068;-68
2020/12/05 00:59:23;;;;;;;13.25;2.70;;;14.50;67.50;;;;;;5052861;28;20082;-67
2020/12/05 01:01:54;;;;;;;11.30;2.80;;;14.50;67.40;;;;;;5053889;28;20028;-68
2020/12/05 01:04:20;;;;;;;8.25;2.35;;;14.50;67.40;;;;;;5052778;28;20094;-68
2020/12/05 01:06:45;;;;;;;13.45;2.40;;;14.50;67.40;;;;;;5053772;28;20056;-70
2020/12/05 01:09:11;;;;;;;11.32;2.60;;;14.50;67.70;;;;;;5054219;28;20067;-70
2020/12/05 01:11:37;;;;;;;16.20;2.88;;;14.50;67.50;;;;;;5053928;28;20079;-68
2020/12/05 01:14:03;;;;;;;19.83;2.97;;;14.50;67.60;;;;;;5053673;28;20449;-67
2020/12/05 01:16:31;;;;;;;9.23;2.35;;;14.50;68.00;;;;;;5053689;28;20132;-67
2020/12/05 01:18:57;;;;;;;11.88;2.55;;;14.50;68.00;;;;;;5053766;28;20072;-71
2020/12/05 01:21:23;;;;;;;11.65;2.90;;;14.50;67.90;;;;;;5052447;28;20422;-71
2020/12/05 01:23:49;;;;;;;14.52;2.85;;;14.50;68.20;;;;;;5053622;28;20025;-68
2020/12/05 01:26:21;;;;;;;10.00;2.65;;;14.50;68.20;;;;;;5053624;28;20045;-67
2020/12/05 01:28:47;;;;;;;20.95;3.50;;;14.50;68.10;;;;;;5052347;28;20059;-69
2020/12/05 01:31:13;;;;;;;11.27;2.47;;;14.50;68.40;;;;;;5053861;28;20053;-69
2020/12/05 01:33:40;;;;;;;12.57;2.90;;;14.50;68.40;;;;;;5053444;28;20037;-70
2020/12/05 01:36:06;;;;;;;14.30;3.53;;;14.50;68.60;;;;;;5053389;28;20432;-68
2020/12/05 01:38:31;;;;;;;14.18;2.60;;;14.50;69.00;;;;;;5053542;28;20025;-68
2020/12/05 01:40:59;;;;;;;15.20;3.00;;;14.50;69.20;;;;;;5053465;28;20482;-68
2020/12/05 01:43:27;;;;;;;11.98;2.75;;;14.50;69.30;;;;;;5053160;28;20029;-66
2020/12/05 01:45:53;;;;;;;12.52;3.03;;;14.50;69.60;;;;;;5053594;28;20470;-68
2020/12/05 01:48:20;;;;;;;17.33;2.97;;;14.60;69.80;;;;;;5053418;28;20029;-67
2020/12/05 01:50:47;;;;;;;12.52;3.03;;;14.60;69.80;;;;;;5053539;28;20146;-68
2020/12/05 01:53:16;;;;;;;13.13;2.78;;;14.60;70.00;;;;;;5053187;28;20498;-71
2020/12/05 01:55:47;;;;;;;12.80;2.50;;;14.60;70.10;;;;;;5052850;28;20021;-70
2020/12/05 01:58:14;;;;;;;16.23;3.03;;;14.60;70.90;;;;;;5053098;28;20428;-71
2020/12/05 02:00:40;;;;;;;12.38;3.28;;;14.60;70.50;;;;;;5052952;28;20108;-72
2020/12/05 02:03:07;;;;;;;13.25;2.85;;;14.60;70.20;;;;;;5053482;28;20445;-73
2020/12/05 02:06:01;;;;;;;13.77;2.92;;;14.70;70.30;;;;;;5051362;28;20124;-71
2020/12/05 02:08:44;;;;;;;11.77;3.40;;;14.70;71.00;;;;;;5052961;28;20359;-70
2020/12/05 02:11:17;;;;;;;14.73;3.10;;;14.70;71.30;;;;;;5051673;28;20267;-71
2020/12/05 02:13:47;;;;;;;12.38;2.90;;;14.60;70.20;;;;;;5053000;28;20021;-69
2020/12/05 02:16:15;;;;;;;10.93;3.50;;;14.60;70.80;;;;;;5052945;28;20025;-70
2020/12/05 02:18:43;;;;;;;14.45;3.50;;;14.60;70.70;;;;;;5053133;28;20116;-75
2020/12/05 02:21:11;;;;;;;10.20;2.92;;;14.50;70.90;;;;;;5053087;28;20478;-69
2020/12/05 02:23:37;;;;;;;16.40;2.92;;;14.50;70.90;;;;;;5051665;28;20413;-67
2020/12/05 02:26:06;;;;;;;11.93;3.40;;;14.50;71.30;;;;;;5052831;28;20021;-68
2020/12/05 02:28:33;;;;;;;16.50;2.70;;;14.50;71.20;;;;;;5053127;28;20028;-69
2020/12/05 02:30:59;;;;;;;14.23;2.90;;;14.40;71.20;;;;;;5051470;28;20017;-70
2020/12/05 02:33:25;;;;;;;17.30;3.50;;;14.40;71.40;;;;;;5052649;28;20486;-71
2020/12/05 02:35:51;;;;;;;11.98;2.92;;;14.40;71.40;;;;;;5052467;28;20020;-69
2020/12/05 02:38:49;;;;;;;11.07;2.83;;;14.40;71.30;;;;;;5052800;28;20047;-73
2020/12/05 02:41:15;;;;;;;13.18;2.90;;;14.40;71.80;;;;;;5027812;28;20033;-71
2020/12/05 02:43:40;;;;;;;13.38;2.83;;;14.30;71.00;;;;;;5053005;28;20661;-74
2020/12/05 02:46:06;;;;;;;13.20;3.10;;;14.30;70.90;;;;;;5051624;28;20536;-70
2020/12/05 02:48:32;;;;;;;10.38;2.58;;;14.30;70.80;;;;;;5052794;28;20104;-70
2020/12/05 02:50:58;;;;;;;13.90;2.92;;;14.30;70.80;;;;;;5053063;28;20546;-70
2020/12/05 02:53:24;;;;;;;12.88;2.60;;;14.30;70.60;;;;;;5052810;28;20056;-72
2020/12/05 02:55:49;;;;;;;12.40;2.75;;;14.30;70.80;;;;;;5056012;28;20092;-72
2020/12/05 02:58:15;;;;;;;14.85;2.67;;;14.30;70.40;;;;;;5060423;28;20045;-68
2020/12/05 03:00:41;;;;;;;14.32;2.60;;;14.30;70.40;;;;;;5059871;28;20029;-73
2020/12/05 03:03:06;;;;;;;13.23;2.55;;;14.30;70.40;;;;;;5060137;28;20366;-75
2020/12/05 03:05:32;;;;;;;13.60;2.97;;;14.30;70.20;;;;;;5066943;28;20037;-76
2020/12/05 03:07:58;;;;;;;13.48;2.75;;;14.30;70.10;;;;;;5071360;28;20033;-74
2020/12/05 03:10:24;;;;;;;10.40;2.33;;;14.40;70.10;;;;;;5062833;28;20029;-73
2020/12/05 03:12:49;;;;;;;13.45;3.30;;;14.40;70.10;;;;;;5057380;28;20032;-71
2020/12/05 03:15:15;;;;;;;9.48;2.72;;;14.40;70.20;;;;;;5056227;28;20029;-73
2020/12/05 03:17:41;;;;;;;16.38;2.50;;;14.40;70.30;;;;;;5056026;28;20025;-70
2020/12/05 03:20:07;;;;;;;14.23;3.28;;;14.30;70.40;;;;;;5055120;28;20029;-67
2020/12/05 03:22:33;;;;;;;19.50;2.97;;;14.30;70.70;;;;;;5056400;28;20078;-69
2020/12/05 03:24:59;;;;;;;16.58;3.63;;;14.30;71.90;;;;;;5056419;28;20029;-72
2020/12/05 03:27:26;;;;;;;18.20;3.60;;;14.40;71.80;;;;;;5056430;28;20024;-71
2020/12/05 03:29:51;;;;;;;16.42;3.45;;;14.30;72.50;;;;;;5056334;28;20021;-67
2020/12/05 03:32:24;;;;;;;17.52;3.30;;;14.40;72.80;;;;;;5056078;28;20047;-66
2020/12/05 03:34:49;;;;;;;21.25;3.53;;;14.40;73.50;;;;;;5055569;28;20420;-68
2020/12/05 03:37:15;;;;;;;16.60;3.33;;;14.40;73.90;;;;;;5055707;28;20033;-71
2020/12/05 03:39:41;;;;;;;16.55;3.05;;;14.40;74.40;;;;;;5054347;28;20082;-68
2020/12/05 03:42:07;;;;;;;19.92;3.97;;;14.40;75.60;;;;;;5054603;28;20021;-68
2020/12/05 03:44:33;;;;;;;18.60;3.42;;;14.40;75.30;;;;;;5055754;28;20021;-68
2020/12/05 03:46:59;;;;;;;19.73;4.03;;;14.40;75.90;;;;;;5055601;28;20113;-67
2020/12/05 03:49:31;;;;;;;19.85;3.90;;;14.30;76.40;;;;;;5055864;28;20017;-67
2020/12/05 03:51:59;;;;;;;21.38;4.00;;;14.30;76.70;;;;;;5055561;28;20100;-67
2020/12/05 03:54:25;;;;;;;18.50;4.13;;;14.30;76.80;;;;;;5053839;28;20029;-68
2020/12/05 03:56:51;;;;;;;17.70;3.17;;;14.30;77.00;;;;;;5055453;28;20393;-67
2020/12/05 03:59:17;;;;;;;21.58;4.45;;;14.30;77.20;;;;;;5055244;28;20370;-67
2020/12/05 04:01:42;;;;;;;15.90;3.67;;;14.30;77.00;;;;;;5055388;28;20112;-70
2020/12/05 04:04:08;;;;;;;18.67;4.07;;;14.30;77.30;;;;;;5055274;28;20432;-68
2020/12/05 04:06:34;;;;;;;20.80;3.35;;;14.30;77.20;;;;;;5054825;28;20048;-74
2020/12/05 04:08:59;;;;;;;20.25;3.50;;;14.30;76.80;;;;;;5053970;28;20095;-69
2020/12/05 04:11:26;;;;;;;20.88;3.88;;;14.30;77.10;;;;;;5055214;28;20029;-67
2020/12/05 04:13:51;;;;;;;17.58;3.00;;;14.30;76.90;;;;;;5055348;28;20059;-66
2020/12/05 04:16:17;;;;;;;17.33;3.03;;;14.30;76.80;;;;;;5055262;28;20049;-66
2020/12/05 04:18:44;;;;;;;14.65;3.30;;;14.20;76.60;;;;;;5055111;28;20437;-66
2020/12/05 04:21:10;;;;;;;15.98;3.42;;;14.20;76.70;;;;;;5054885;28;20501;-67
2020/12/05 04:23:36;;;;;;;18.40;3.60;;;14.20;76.60;;;;;;5054566;28;20029;-72
2020/12/05 04:26:02;;;;;;;12.13;3.20;;;14.30;76.70;;;;;;5054961;28;20025;-70
2020/12/05 04:28:27;;;;;;;11.70;2.97;;;14.30;76.90;;;;;;5054950;28;20028;-69
2020/12/05 04:30:53;;;;;;;17.08;3.63;;;14.30;76.90;;;;;;5054761;28;20029;-68
2020/12/05 04:33:19;;;;;;;13.52;2.97;;;14.30;76.60;;;;;;5054767;28;20064;-72
2020/12/05 04:35:44;;;;;;;13.40;3.22;;;14.30;76.90;;;;;;5054659;28;20037;-68
2020/12/05 04:38:10;;;;;;;16.58;3.17;;;14.30;77.20;;;;;;5054407;28;20044;-73
2020/12/05 04:40:36;;;;;;;12.80;2.97;;;14.30;77.30;;;;;;5053159;28;20116;-71
2020/12/05 04:43:02;;;;;;;16.23;3.40;;;14.20;77.40;;;;;;5054553;28;20078;-72
2020/12/05 04:45:29;;;;;;;15.38;3.20;;;14.20;77.60;;;;;;5053036;28;20024;-70
2020/12/05 04:47:56;;;;;;;22.67;3.20;;;14.20;77.60;;;;;;5054579;28;20371;-75
2020/12/05 04:50:25;;;;;;;16.40;3.58;;;14.20;78.10;;;;;;5054135;28;20497;-72
2020/12/05 04:52:52;;;;;;;17.00;3.90;;;14.20;77.90;;;;;;5054233;28;20021;-70
2020/12/05 04:55:30;;;;;;;20.88;3.72;;;14.20;78.30;;;;;;5054138;28;20371;-71
2020/12/05 04:57:57;;;;;;;16.25;4.13;;;14.20;78.30;;;;;;5054248;28;20093;-73
2020/12/05 05:00:27;;;;;;;17.02;3.65;;;14.20;78.70;;;;;;5054302;28;20017;-70
2020/12/05 05:02:58;;;;;;;16.30;3.63;;;14.30;78.70;;;;;;5053231;28;20112;-70
2020/12/05 05:05:24;;;;;;;22.88;4.07;;;14.30;78.90;;;;;;5053928;28;20037;-70
2020/12/05 05:07:52;;;;;;;21.00;4.13;;;14.40;78.60;;;;;;5054210;28;20504;-68
2020/12/05 05:10:25;;;;;;;12.27;3.63;;;14.40;78.50;;;;;;5054135;28;20494;-68
2020/12/05 05:13:02;;;;;;;25.02;3.85;;;14.50;78.40;;;;;;5054959;28;20028;-67
2020/12/05 05:15:32;;;;;;;18.52;3.42;;;14.50;78.30;;;;;;5053705;28;20078;-67
2020/12/05 05:18:03;;;;;;;18.48;3.92;;;14.50;78.50;;;;;;5052941;28;20041;-69
2020/12/05 05:20:35;;;;;;;22.63;3.78;;;14.50;78.30;;;;;;5052365;28;20029;-74
2020/12/05 05:23:15;;;;;;;17.88;4.22;;;14.50;78.10;;;;;;5053766;28;20025;-72
2020/12/05 05:25:59;;;;;;;20.20;3.72;;;14.60;78.30;;;;;;5052313;28;20071;-71
2020/12/05 05:28:31;;;;;;;16.45;3.95;;;14.60;78.40;;;;;;5053736;28;20017;-70
2020/12/05 05:31:15;;;;;;;25.42;4.22;;;14.60;78.20;;;;;;5053354;28;20505;-67
2020/12/05 05:33:48;;;;;;;19.60;3.63;;;14.70;78.20;;;;;;5051972;28;20235;-72
2020/12/05 05:36:17;;;;;;;17.85;2.90;;;14.70;77.90;;;;;;5053490;28;20477;-72
2020/12/05 05:38:44;;;;;;;18.42;3.35;;;14.70;77.80;;;;;;5053450;28;20032;-69
2020/12/05 05:41:19;;;;;;;18.40;3.80;;;14.70;78.10;;;;;;5053424;28;20078;-72
2020/12/05 05:44:02;;;;;;;18.13;3.13;;;14.70;77.80;;;;;;5052085;28;20045;-72
2020/12/05 05:46:34;;;;;;;20.95;3.83;;;14.70;78.00;;;;;;5053532;28;20082;-71
2020/12/05 05:49:01;;;;;;;21.33;3.33;;;14.80;77.80;;;;;;5052201;28;20549;-71
2020/12/05 05:51:44;;;;;;;22.63;4.30;;;14.80;77.60;;;;;;5052095;28;20043;-71
2020/12/05 05:54:14;;;;;;;15.85;3.25;;;14.80;77.70;;;;;;5053547;28;20501;-70
2020/12/05 05:56:58;;;;;;;15.32;3.50;;;14.80;77.50;;;;;;5053151;28;20029;-72
2020/12/05 05:59:25;;;;;;;10.45;2.45;;;14.70;77.60;;;;;;5053189;28;20029;-71
2020/12/05 06:01:52;;;;;;;20.98;3.65;;;14.70;77.50;;;;;;5053364;28;20021;-72
2020/12/05 06:04:34;;;;;;;23.33;3.85;;;14.70;77.70;;;;;;5051616;28;20359;-71
2020/12/05 06:07:02;;;;;;;12.85;3.25;;;14.70;78.00;;;;;;5053153;28;20405;-70
2020/12/05 06:09:44;;;;;;;26.13;3.95;;;14.70;77.80;;;;;;5053280;28;20029;-71
2020/12/05 06:12:11;;;;;;;22.92;3.35;;;14.70;77.90;;;;;;5053097;28;20438;-68
2020/12/05 06:14:39;;;;;;;19.85;3.13;;;14.60;77.70;;;;;;5053011;28;20060;-73
2020/12/05 06:17:07;;;;;;;23.35;3.78;;;14.60;77.80;;;;;;5053272;28;20443;-74
2020/12/05 06:19:33;;;;;;;17.40;3.45;;;14.60;77.70;;;;;;5053251;28;20021;-69
2020/12/05 06:22:00;;;;;;;20.35;2.78;;;14.60;77.90;;;;;;5053326;28;20029;-70
2020/12/05 06:24:40;;;;;;;16.02;3.30;;;14.60;77.80;;;;;;5052815;28;20021;-73
2020/12/05 06:27:08;;;;;;;24.30;3.83;;;14.60;77.70;;;;;;5052988;28;20447;-73
2020/12/05 06:29:36;;;;;;;22.80;3.78;;;14.50;77.70;;;;;;5054799;28;20017;-71
2020/12/05 06:32:02;;;;;;;25.77;3.60;;;14.60;77.50;;;;;;5057379;28;20503;-76
2020/12/05 06:34:40;;;;;;;16.52;3.75;;;14.60;77.30;;;;;;5055814;28;20022;-75
2020/12/05 06:37:11;;;;;;;21.13;3.45;;;14.60;77.20;;;;;;5057559;28;20041;-76
2020/12/05 06:39:38;;;;;;;18.08;3.55;;;14.60;76.90;;;;;;5057254;28;20024;-77
2020/12/05 06:42:18;;;;;;;20.15;4.30;;;14.60;76.80;;;;;;5057275;28;20037;-77
2020/12/05 06:44:44;;;;;;;16.20;4.40;;;14.60;76.60;;;;;;5055608;28;20478;-76
2020/12/05 06:47:24;;;;;;;15.05;3.35;;;14.60;76.40;;;;;;5056682;28;20040;-75
2020/12/05 06:49:51;;;;;;;13.23;3.53;;;14.60;76.10;;;;;;5056690;28;20029;-70
2020/12/05 06:52:29;;;;;;;20.30;3.13;;;14.60;75.70;;;;;;5056744;28;20048;-69
2020/12/05 06:55:07;;;;;;;21.13;4.00;;;14.60;75.80;;;;;;5056584;28;20032;-70
2020/12/05 06:57:35;;;;;;;14.27;3.38;;;14.70;75.60;;;;;;5056202;28;20116;-70
2020/12/05 07:00:20;;;;;;;15.73;3.47;;;14.70;75.10;;;;;;5056418;28;20029;-68
2020/12/05 07:03:06;;;;;;;20.75;3.63;;;14.70;75.00;;;;;;5058107;28;20466;-68
2020/12/05 07:05:31;;;;;;;13.98;3.38;;;14.70;74.90;;;;;;5055267;28;20048;-66
2020/12/05 07:08:00;;;;;;;22.25;4.40;;;14.70;74.80;;;;;;5056066;28;20028;-68
2020/12/05 07:10:47;;;;;;;23.35;3.50;;;14.80;74.80;;;;;;5054809;28;20025;-67
2020/12/05 07:13:18;;;;;;;13.30;3.35;;;14.80;74.60;;;;;;5055942;28;20417;-75
2020/12/05 07:15:47;;;;;;;19.92;3.83;;;14.80;74.30;;;;;;5055908;28;20086;-68
2020/12/05 07:18:25;;;;;;;19.10;3.58;;;14.90;74.40;;;;;;5055839;28;20056;-68
2020/12/05 07:20:51;;;;;;;19.38;3.53;;;14.90;74.10;;;;;;5055862;28;20025;-70
2020/12/05 07:23:17;;;;;;;18.67;3.38;;;15.00;74.00;;;;;;5055963;28;20064;-68
2020/12/05 07:25:42;;;;;;;21.40;3.63;;;15.00;73.90;;;;;;5054519;28;20096;-68
2020/12/05 07:28:08;;;;;;;18.15;3.72;;;15.10;73.70;;;;;;5055854;28;20029;-67
2020/12/05 07:30:34;;;;;;;17.55;3.47;;;15.20;73.60;;;;;;5055958;28;20064;-69
2020/12/05 07:33:00;;;;;;;17.17;4.30;;;15.20;73.40;;;;;;5055311;28;20025;-70
2020/12/05 07:35:26;;;;;;;18.52;3.65;;;15.30;73.30;;;;;;5055578;28;20060;-68
2020/12/05 07:37:51;;;;;;;19.48;3.35;;;15.30;73.20;;;;;;5055367;28;20500;-72
2020/12/05 07:40:29;;;;;;;15.80;3.03;;;15.40;73.00;;;;;;5054923;28;20036;-68
2020/12/05 07:42:55;;;;;;;17.02;3.92;;;15.50;72.80;;;;;;5055519;28;20355;-67
2020/12/05 07:45:22;;;;;;;17.65;3.67;;;15.50;72.50;;;;;;5055306;28;20386;-69
2020/12/05 07:47:48;;;;;;;18.50;3.28;;;15.50;72.00;;;;;;5055463;28;20032;-68
2020/12/05 07:50:15;;;;;;;15.23;3.17;;;15.50;71.70;;;;;;5055482;28;20025;-69
2020/12/05 07:52:42;;;;;;;20.05;3.72;;;15.50;71.70;;;;;;5054211;28;20422;-70
2020/12/05 07:55:11;;;;;;;15.52;3.00;;;15.60;71.60;;;;;;5053765;28;20378;-69
2020/12/05 07:57:49;;;;;;;18.90;3.00;;;15.60;71.10;;;;;;5055066;28;20126;-69
2020/12/05 08:00:15;;;;;;;14.10;3.20;;;15.70;70.90;;;;;;5055166;28;20536;-71
2020/12/05 08:03:11;;;;;;;17.33;3.55;;;15.70;70.80;;;;;;5054985;28;20032;-70
2020/12/05 08:06:16;;;;;;;14.23;3.15;;;15.70;71.30;;;;;;5054844;28;20068;-73
2020/12/05 08:08:50;;;;;;;19.15;3.20;;;15.70;71.00;;;;;;5044920;28;20478;-76
2020/12/05 08:11:15;;;;;;;;;;;15.70;70.20;;;;;;5055561;28;20021;-76
2020/12/05 08:13:42;;;;;;;14.82;3.55;;;15.80;69.70;;;;;;5054932;28;19905;-73
2020/12/05 08:16:08;;;;;;;18.90;2.85;;;15.80;70.50;;;;;;5055103;28;20467;-75
2020/12/05 08:18:36;;;;;;;18.70;3.63;;;15.80;70.40;;;;;;5054883;28;20119;-73
2020/12/05 08:21:04;;;;;;;22.38;3.47;;;15.80;70.20;;;;;;5054767;28;20021;-72
2020/12/05 08:23:37;;;;;;;17.70;3.47;;;15.80;70.40;;;;;;5054871;28;20039;-74
2020/12/05 08:26:05;;;;;;;14.43;3.50;;;15.80;70.00;;;;;;5038810;28;20045;-78
2020/12/05 08:28:36;;;;;;;13.75;3.08;;;15.90;70.30;;;;;;5054498;28;20028;-78
2020/12/05 08:31:10;;;;;;;13.68;2.83;;;15.80;69.90;;;;;;5055664;28;20013;-75
2020/12/05 08:33:41;;;;;;;;;;;15.90;69.90;;;;;;5055120;28;20037;-77
2020/12/05 08:36:25;;;;;;;15.10;4.15;;;16.00;70.30;;;;;;5055014;28;19920;-73
2020/12/05 08:38:52;;;;;;;13.65;3.70;;;16.10;70.40;;;;;;5054451;28;20051;-74
2020/12/05 08:41:19;;;;;;;15.55;3.22;;;16.20;69.80;;;;;;5054667;28;20370;-73
2020/12/05 08:43:45;;;;;;;18.58;4.00;;;16.20;69.60;;;;;;5054646;28;20033;-78
2020/12/05 08:46:22;;;;;;;17.00;4.07;;;16.20;69.30;;;;;;5054599;28;20352;-79
2020/12/05 08:48:48;;;;;;;19.08;3.80;;;16.30;69.30;;;;;;5053137;28;20079;-77
2020/12/05 08:51:15;;;;;;;25.83;3.88;;;16.30;69.50;;;;;;5051444;28;20072;-75
2020/12/05 08:53:44;;;;;;;16.73;4.65;;;16.30;69.30;;;;;;5052687;28;20393;-75
2020/12/05 08:56:20;;;;;;;22.08;4.25;;;16.40;69.60;;;;;;5054504;28;20052;-77
2020/12/05 08:58:46;;;;;;;13.38;3.95;;;16.40;69.30;;;;;;5054430;28;20045;-75
2020/12/05 09:01:13;;;;;;;13.40;3.17;;;16.40;69.40;;;;;;5053757;28;20064;-71
2020/12/05 09:03:40;;;;;;;15.65;3.22;;;16.50;69.10;;;;;;5054325;28;20411;-78
2020/12/05 09:06:07;;;;;;;19.63;3.90;;;16.60;69.00;;;;;;5052392;28;20051;-74
2020/12/05 09:08:33;;;;;;;19.92;3.90;;;16.70;68.80;;;;;;5053792;28;20170;-74
2020/12/05 09:11:00;;;;;;;19.08;3.47;;;16.80;68.50;;;;;;5053682;28;20466;-77
2020/12/05 09:13:26;;;;;;;18.17;3.60;;;16.90;68.50;;;;;;5053627;28;20035;-73
2020/12/05 09:16:02;;;;;;;17.58;3.65;;;17.00;68.50;;;;;;5052133;28;20092;-76
2020/12/05 09:18:48;;;;;;;20.80;3.63;;;17.00;67.80;;;;;;5053620;28;20060;-78
2020/12/05 09:21:21;;;;;;;21.30;3.50;;;17.00;67.80;;;;;;5053212;28;20071;-77
2020/12/05 09:24:22;;;;;;;19.60;4.17;;;17.10;68.00;;;;;;5053738;28;20458;-77
2020/12/05 09:27:00;;;;;;;17.73;3.25;;;17.10;68.20;;;;;;5053266;28;20029;-79
2020/12/05 09:29:27;;;;;;;20.27;4.50;;;17.10;67.50;;;;;;5053451;28;20383;-75
2020/12/05 09:31:56;;;;;;;22.85;4.10;;;17.10;68.20;;;;;;5053171;28;20025;-74
2020/12/05 09:34:33;;;;;;;18.25;3.33;;;17.20;67.50;;;;;;5052968;28;20507;-71
2020/12/05 09:36:59;;;;;;;17.15;3.08;;;17.20;66.70;;;;;;5053404;28;20071;-75
2020/12/05 09:39:26;;;;;;;17.38;3.45;;;17.30;66.70;;;;;;5053474;28;20419;-78
2020/12/05 09:41:53;;;;;;;15.20;3.53;;;17.40;66.00;;;;;;5053756;28;20024;-77
2020/12/05 09:44:25;;;;;;;17.70;3.38;;;17.60;65.90;;;;;;5053769;28;20033;-77
2020/12/05 09:46:50;;;;;;;21.88;3.38;;;17.70;65.60;;;;;;5053576;28;20025;-73
2020/12/05 09:49:18;;;;;;;15.63;3.60;;;17.80;64.90;;;;;;5053795;28;20032;-75
2020/12/05 09:51:44;;;;;;;25.23;4.97;;;17.90;64.50;;;;;;5053760;28;20040;-77
2020/12/05 09:54:10;;;;;;;23.00;3.63;;;17.90;64.70;;;;;;5052706;28;20146;-76
2020/12/05 09:56:36;;;;;;;18.85;3.25;;;18.00;65.10;;;;;;5053936;28;20084;-79
2020/12/05 09:59:02;;;;;;;20.52;3.65;;;18.00;64.00;;;;;;5053865;28;20529;-77
2020/12/05 10:01:29;;;;;;;12.75;2.85;;;18.00;64.10;;;;;;5052466;28;20478;-78
2020/12/05 10:03:55;;;;;;;15.13;2.80;;;18.00;64.10;;;;;;5053210;28;20056;-76
2020/12/05 10:06:22;;;;;;;18.40;3.35;;;18.00;64.00;;;;;;5053873;28;20549;-78
2020/12/05 10:08:48;;;;;;;18.75;3.17;;;18.00;64.00;;;;;;5053874;28;20033;-77
2020/12/05 10:11:17;;;;;;;15.43;3.00;;;17.90;63.90;;;;;;5053869;28;20359;-78
2020/12/05 10:13:42;;;;;;;22.77;4.43;;;17.90;64.30;;;;;;5053777;28;20489;-76
2020/12/05 10:16:08;;;;;;;18.13;3.35;;;17.90;64.40;;;;;;5053627;28;20017;-71
2020/12/05 10:18:36;;;;;;;14.35;2.38;;;17.90;64.50;;;;;;5053197;28;20496;-72
2020/12/05 10:21:02;;;;;;;10.32;2.65;;;17.80;64.60;;;;;;5051904;28;20485;-71
2020/12/05 10:23:28;;;;;;;12.82;2.72;;;17.80;64.40;;;;;;5051736;28;20037;-74
2020/12/05 10:25:55;;;;;;;20.13;4.47;;;17.90;64.00;;;;;;5052864;28;20401;-70
2020/12/05 10:28:21;;;;;;;15.75;3.63;;;18.00;64.00;;;;;;5052992;28;20025;-73
2020/12/05 10:30:48;;;;;;;12.25;3.60;;;18.00;63.90;;;;;;5052848;28;20089;-73
2020/12/05 10:33:13;;;;;;;12.98;2.60;;;18.00;63.60;;;;;;5052561;28;20016;-68
2020/12/05 10:35:39;;;;;;;16.48;3.42;;;18.10;63.40;;;;;;5052472;28;20432;-69
2020/12/05 10:38:06;;;;;;;23.30;3.58;;;18.10;62.80;;;;;;5052691;28;20033;-69
2020/12/05 10:40:32;;;;;;;15.93;2.85;;;18.20;63.10;;;;;;5052807;28;20017;-76
2020/12/05 10:42:57;;;;;;;15.95;3.85;;;18.20;62.70;;;;;;5053048;28;20378;-72
2020/12/05 10:45:24;;;;;;;19.17;3.17;;;18.30;62.70;;;;;;5051245;28;20470;-74
2020/12/05 10:47:50;;;;;;;15.23;2.80;;;18.30;62.60;;;;;;5053466;28;20359;-76
2020/12/05 10:50:16;;;;;;;15.80;3.20;;;18.30;62.90;;;;;;5054131;28;20013;-76
2020/12/05 10:52:43;;;;;;;17.52;2.63;;;18.30;63.00;;;;;;5054030;28;20063;-76
2020/12/05 10:55:11;;;;;;;8.93;2.20;;;18.30;62.40;;;;;;5053979;28;20020;-78
2020/12/05 10:57:38;;;;;;;13.90;3.13;;;18.50;62.40;;;;;;5052959;28;20508;-72
2020/12/05 11:00:04;;;;;;;16.13;3.45;;;18.60;62.00;;;;;;5052795;28;20106;-75
2020/12/05 11:02:30;;;;;;;13.27;2.55;;;18.70;61.70;;;;;;5052878;28;20483;-77
2020/12/05 11:04:56;;;;;;;15.57;2.65;;;18.80;61.60;;;;;;5056650;28;20067;-74
2020/12/05 11:07:23;;;;;;;15.63;2.95;;;18.80;61.50;;;;;;5059591;28;20029;-74
2020/12/05 11:09:49;;;;;;;18.35;3.60;;;18.80;61.80;;;;;;5055288;28;20505;-68
2020/12/05 11:12:15;;;;;;;15.88;3.00;;;18.70;61.90;;;;;;5051602;28;20106;-74
2020/12/05 11:14:42;;;;;;;16.52;3.38;;;18.80;61.90;;;;;;5053547;28;20378;-73
2020/12/05 11:17:09;;;;;;;23.15;3.60;;;18.80;61.70;;;;;;5054759;28;20044;-75
2020/12/05 11:19:35;;;;;;;15.15;3.83;;;18.80;62.10;;;;;;5055973;28;20040;-75
2020/12/05 11:22:04;;;;;;;13.55;3.78;;;18.90;62.00;;;;;;5055740;28;20350;-76
2020/12/05 11:24:29;;;;;;;14.13;3.50;;;18.90;62.00;;;;;;5055319;28;20073;-70
2020/12/05 11:26:56;;;;;;;20.42;3.60;;;18.80;61.90;;;;;;5054894;28;20044;-73
2020/12/05 11:29:22;;;;;;;16.90;3.15;;;18.70;62.70;;;;;;5054771;28;20056;-73
2020/12/05 11:31:48;;;;;;;14.57;3.05;;;18.60;62.50;;;;;;5057123;28;20478;-73
2020/12/05 11:34:14;;;;;;;11.60;3.00;;;18.60;62.80;;;;;;5056349;28;20028;-72
2020/12/05 11:36:43;;;;;;;17.40;3.10;;;18.50;63.30;;;;;;5055063;28;20029;-76
2020/12/05 11:39:11;;;;;;;22.05;6.35;;;18.60;63.30;;;;;;5056151;28;20139;-78
2020/12/05 11:41:37;;;;;;;19.63;3.55;;;18.80;64.10;;;;;;5056579;28;20104;-74
2020/12/05 11:44:03;;;;;;;23.17;3.53;;;18.80;63.70;;;;;;5055638;28;20064;-74
2020/12/05 11:46:32;;;;;;;18.40;4.10;;;18.80;63.60;;;;;;5055251;28;20554;-73
2020/12/05 11:48:58;;;;;;;11.15;3.00;;;18.80;63.30;;;;;;5055694;28;20029;-74
2020/12/05 11:51:25;;;;;;;10.10;3.10;;;18.80;63.20;;;;;;5054998;28;20116;-70
2020/12/05 11:53:51;;;;;;;17.35;3.70;;;18.90;63.00;;;;;;5054994;28;20067;-77
2020/12/05 11:56:17;;;;;;;15.48;3.58;;;18.90;62.70;;;;;;5055869;28;20048;-73
2020/12/05 11:58:42;;;;;;;18.77;4.03;;;18.90;61.70;;;;;;5054825;28;20033;-79
2020/12/05 12:01:08;;;;;;;14.38;3.40;;;18.90;61.50;;;;;;5055371;28;20017;-70
2020/12/05 12:03:34;;;;;;;13.93;2.83;;;19.00;61.50;;;;;;5055598;28;20052;-70
2020/12/05 12:06:00;;;;;;;13.38;3.20;;;19.10;61.50;;;;;;5054720;28;20052;-77
2020/12/05 12:08:26;;;;;;;11.02;3.17;;;19.10;61.00;;;;;;5054880;28;20025;-73
2020/12/05 12:10:52;;;;;;;14.20;3.60;;;19.10;61.30;;;;;;5054921;28;20025;-79
2020/12/05 12:13:18;;;;;;;21.40;4.13;;;19.10;61.80;;;;;;5054667;28;20024;-75
2020/12/05 12:15:43;;;;;;;16.08;3.63;;;19.10;62.00;;;;;;5054586;28;20394;-75
2020/12/05 12:18:09;;;;;;;17.48;3.30;;;19.10;62.50;;;;;;5054542;28;20032;-73
2020/12/05 12:20:35;;;;;;;14.30;3.50;;;19.00;63.00;;;;;;5054695;28;20029;-73
2020/12/05 12:23:00;;;;;;;23.73;4.07;;;18.90;63.20;;;;;;5054787;28;20029;-69
2020/12/05 12:25:27;;;;;;;13.98;3.63;;;18.80;63.20;;;;;;5053213;28;20029;-69
2020/12/05 12:27:53;;;;;;;18.27;3.80;;;18.80;63.60;;;;;;5054613;28;20025;-69
2020/12/05 12:30:19;;;;;;;14.80;3.30;;;18.80;63.20;;;;;;5054582;28;20419;-70
2020/12/05 12:32:45;;;;;;;18.73;3.72;;;18.80;63.00;;;;;;5054585;28;20017;-71
2020/12/05 12:35:10;;;;;;;14.75;3.00;;;18.70;62.80;;;;;;5054402;28;20017;-71
2020/12/05 12:37:36;;;;;;;18.92;3.47;;;18.80;62.70;;;;;;5054401;28;20051;-79
2020/12/05 12:40:03;;;;;;;15.88;3.08;;;18.80;62.50;;;;;;5054461;28;20028;-77
2020/12/05 12:42:29;;;;;;;11.68;3.15;;;18.80;62.60;;;;;;5054664;28;20021;-75
2020/12/05 12:44:55;;;;;;;12.73;3.42;;;18.70;62.60;;;;;;5054795;28;20048;-77